Hlavní strana
METAR-TAF:

METAR-TAF

Letiště :

Umeå, Švédsko

zeměpisná šířka: 63-48N, zeměpisná délka: 020-17E, výška: 7 m

Aktuální stav počasí

Zpráva byla vytvořena před 30 minutami, v 02:50 UTC
Jihozápadní vítr 8 kt
Teplota 5°C
Vlhkost vzduchu 75%
Tlak 1014 hPa
Viditelnost 10 km a více

METAR: ESNU 010250Z AUTO 22008KT 9999 NCD 05/01 Q1014

Čas: 04:20 (03:20 UTC)

Předpověď počasí

Zpráva byla vytvořena před 50 minutami, v 02:30 UTC
Předpověď platná od 01 v 03 UTC do 01 v 12 UTC
Západojihozápadní vítr 10 kt
Viditelnost 10 km a více
Žádná oblačnost pod 1500 m, nevyskytují se cumulonimby.

TAF: ESNU 010230Z 0103/0112 25010KT CAVOK

Stav a předpovědi počasí z více než 4 000 letišť (zprávy METAR a TAF).

Červené a žluté tečky na mapě představují dostupné meteorologické stanice.

Když kurzor umístíte na tečku, zobrazí se název stanice.

Pak kliknutím zobrazíte stav a předpověď počasí.

Chcete-li změnit mapu, kliknutím na zelené tlačítko se znaménkem +mapu přiblížíte, kliknutím na zelené tlačítko se znaménkem – mapu oddálíte a kliknutím na zelené šipky přejdete na sousední mapy.


METAR-TAF: